GEML

Melilla Airport

Melilla, Spain
METAR GEML 211500Z 08009KT 050V110 4600 BR SCT005 BKN007 16/15 Q1014
Observed Flight Rules
Apr-21 @ 15:00 UTC (36 minutes ago) Instrument Flight Rules
Wind Visibility Clouds Conditions
80° at 9 knots 4,603 meters
  • Scattered at 500' AGL
  • Broken at 700' AGL
  • Mist
Temperatures Readings
Current 16°C / 61°F
Dewpoint 15°C / 59°F
Humidity 94%
Altimeter 29.94" Hg
Pressure 1014 hPa
Elevation 55
METAR GEML 211500Z 08009KT 050V110 4600 BR SCT005 BKN007 16/15 Q1014
Observed Flight Rules
Apr-21 @ 15:00 UTC
(36 minutes ago)
IFR
Wind Visibility
80° at 9 knots 4,603 meters
Clouds
  • Scattered at 500' AGL
  • Broken at 700' AGL
Conditions
  • Mist
Temperature Dewpoint
16°C / 61°F 15°C / 59°F
Humidity Altimeter Pressure
94% 29.94" Hg 1014 hPa